Terminal Aerodrome Forecast
Issued by NWS

Home | Current Version | Previous Version | Text Only | Print | Product List | Glossary On
Versions: 1 2 3 4 5 6 7 8 9 10 11 12 13 14 15 16 17 18 19 20 21 22 23 24 25 26 27 28
754
FTUS43 KDLH 241327 AAA
TAFHIB
TAF AMD
KHIB 241327Z 2413/2512 15006KT 2SM -SHRA VCTS OVC090CB
      TEMPO 2414/2415 5SM -TSRA OVC050CB
     FM241500 15005KT P6SM VCSH BKN090
     FM241600 17007G17KT P6SM BKN100
     FM242300 20009KT P6SM VCTS BKN100CB
     FM251000 19005KT P6SM BKN030=

USA.gov is the U.S. government's official web portal to all federal, state and local government web resources and services.